Time;durP1;ratioP1;P1;durP2;ratioP2;P2;SDS_P1;SDS_P2;PMS_P1;PMS_P2;Temp;Humidity;BMP_temperature;BMP_pressure;BME280_temperature;BME280_humidity;BME280_pressure;Samples;Min_cycle;Max_cycle;Signal;HPM_P1;HPM_P2
2023/06/22 00:03:41;;;;;;;5.18;3.60;;;;;;;24.71;52.55;100270.13;10425294;28;20056;-60
2023/06/22 00:08:43;;;;;;;4.18;3.25;;;;;;;24.69;52.45;100263.25;10422891;28;20522;-60
2023/06/22 00:13:44;;;;;;;6.18;3.38;;;;;;;24.75;52.90;100286.91;10423369;28;20072;-59
2023/06/22 00:18:47;;;;;;;3.30;3.00;;;;;;;24.71;52.60;100310.56;10416623;28;20037;-58
2023/06/22 00:23:49;;;;;;;3.72;3.17;;;;;;;24.46;53.42;100344.25;10416038;28;20037;-59
2023/06/22 00:28:50;;;;;;;6.35;3.42;;;;;;;24.35;53.62;100363.44;10418519;28;20049;-60
2023/06/22 00:33:51;;;;;;;4.45;4.05;;;;;;;24.42;53.53;100378.84;10417852;28;20120;-59
2023/06/22 00:38:53;;;;;;;7.55;3.45;;;;;;;24.47;53.40;100404.44;10418378;28;20124;-60
2023/06/22 00:43:55;;;;;;;6.25;2.88;;;;;;;24.57;52.70;100409.19;10419274;28;20067;-59
2023/06/22 00:48:57;;;;;;;5.70;3.05;;;;;;;24.70;52.77;100416.09;10419503;28;20037;-59
2023/06/22 00:53:58;;;;;;;5.13;3.30;;;;;;;24.91;52.32;100428.03;10418993;28;20053;-60
2023/06/22 00:59:02;;;;;;;4.25;3.17;;;;;;;24.96;52.56;100439.06;10420131;28;20041;-59
2023/06/22 01:04:05;;;;;;;3.88;3.08;;;;;;;25.03;52.34;100434.09;10426195;28;20391;-59
2023/06/22 01:09:19;;;;;;;7.85;3.53;;;;;;;25.11;52.46;100428.06;10419799;28;20404;-59
2023/06/22 01:14:27;;;;;;;5.43;3.88;;;;;;;25.09;52.28;100460.53;10412446;28;20061;-59
2023/06/22 01:20:04;;;;;;;7.68;3.90;;;;;;;24.74;54.42;100503.31;10426752;28;20053;-60
2023/06/22 01:25:28;;;;;;;5.00;4.20;;;;;;;24.04;57.21;100537.38;10430755;28;20052;-60
2023/06/22 01:30:33;;;;;;;6.57;4.97;;;;;;;23.84;59.90;100547.09;10427710;28;20044;-61
2023/06/22 01:35:35;;;;;;;6.80;4.90;;;;;;;23.66;61.04;100434.91;10425036;28;20053;-59
2023/06/22 01:40:37;;;;;;;8.85;5.15;;;;;;;23.62;61.66;100414.53;10424870;28;20390;-63
2023/06/22 01:45:39;;;;;;;7.47;4.97;;;;;;;23.51;62.00;100384.25;10414786;28;20052;-63
2023/06/22 01:50:41;;;;;;;5.38;4.85;;;;;;;23.43;62.14;100357.28;10423600;28;20041;-62
2023/06/22 01:55:42;;;;;;;10.00;6.38;;;;;;;23.30;62.74;100342.13;10429666;28;20087;-62
2023/06/22 02:01:11;;;;;;;7.90;5.63;;;;;;;23.12;63.10;100347.97;10428152;28;20051;-62
2023/06/22 02:06:27;;;;;;;6.15;5.20;;;;;;;22.97;63.58;100401.53;10423590;28;20048;-61
2023/06/22 02:11:30;;;;;;;7.77;5.50;;;;;;;22.96;63.25;100401.78;10422179;28;20056;-61
2023/06/22 02:16:32;;;;;;;8.30;5.95;;;;;;;22.90;63.59;100386.38;10426360;28;20541;-61
2023/06/22 02:21:34;;;;;;;8.13;6.43;;;;;;;22.87;64.08;100364.97;10423441;28;20419;-61
2023/06/22 02:26:38;;;;;;;7.30;6.07;;;;;;;22.86;64.36;100366.84;10421863;28;20052;-62
2023/06/22 02:31:39;;;;;;;8.25;5.43;;;;;;;22.85;64.30;100359.72;10423108;28;20152;-62
2023/06/22 02:36:50;;;;;;;6.63;5.70;;;;;;;22.88;64.32;100347.41;10421152;28;20407;-61
2023/06/22 02:41:54;;;;;;;7.00;5.53;;;;;;;22.83;64.51;100352.81;10426527;28;20135;-62
2023/06/22 02:46:55;;;;;;;5.53;4.97;;;;;;;22.80;64.93;100356.91;10428096;28;20059;-61
2023/06/22 02:51:57;;;;;;;6.32;5.70;;;;;;;22.84;64.82;100384.66;10430883;28;20041;-61
2023/06/22 02:57:02;;;;;;;6.20;5.57;;;;;;;22.55;65.44;100395.81;10429409;28;20056;-62
2023/06/22 03:02:04;;;;;;;6.82;6.00;;;;;;;22.63;65.65;100343.31;10422092;28;20045;-63
2023/06/22 03:07:05;;;;;;;8.68;6.88;;;;;;;22.73;65.45;100348.91;10406786;28;20046;-62
2023/06/22 03:12:08;;;;;;;10.90;6.65;;;;;;;22.72;65.59;100344.50;10419683;28;20430;-62
2023/06/22 03:17:10;;;;;;;8.90;6.50;;;;;;;22.72;65.66;100349.97;10425135;28;20973;-65
2023/06/22 03:22:12;;;;;;;16.75;7.50;;;;;;;22.74;65.44;100345.06;10421946;28;20049;-64
2023/06/22 03:27:15;;;;;;;9.32;6.45;;;;;;;22.75;65.56;100329.47;10417918;28;20127;-64
2023/06/22 03:32:16;;;;;;;9.65;7.10;;;;;;;22.74;65.32;100320.41;10410585;28;20539;-65
2023/06/22 03:37:17;;;;;;;9.32;6.82;;;;;;;22.75;65.45;100332.22;10421747;28;20048;-66
2023/06/22 03:42:19;;;;;;;9.65;6.95;;;;;;;22.77;65.68;100330.03;10419140;28;20423;-66
2023/06/22 03:47:20;;;;;;;9.38;7.40;;;;;;;22.79;65.85;100330.63;10425573;28;20053;-67
2023/06/22 03:52:22;;;;;;;8.55;6.72;;;;;;;22.87;65.24;100327.41;10413021;28;20393;-67
2023/06/22 03:57:23;;;;;;;8.27;6.30;;;;;;;22.94;65.15;100322.53;10425003;28;20053;-67
2023/06/22 04:02:25;;;;;;;9.25;6.10;;;;;;;22.96;65.43;100320.34;10416428;28;20052;-67
2023/06/22 04:07:27;;;;;;;7.93;6.30;;;;;;;23.05;65.13;100320.75;10416922;28;20045;-67
2023/06/22 04:12:28;;;;;;;9.82;6.18;;;;;;;23.07;65.22;100337.78;10422551;28;20048;-68
2023/06/22 04:17:30;;;;;;;8.23;5.95;;;;;;;23.13;65.11;100331.25;10412390;28;20051;-67
2023/06/22 04:22:32;;;;;;;8.23;6.15;;;;;;;23.20;64.83;100346.66;10418105;28;20041;-67
2023/06/22 04:27:39;;;;;;;8.00;6.07;;;;;;;23.21;64.92;100345.59;10415540;28;20043;-65
2023/06/22 04:32:41;;;;;;;6.65;5.95;;;;;;;23.24;64.79;100348.63;10419252;28;20045;-66
2023/06/22 04:37:42;;;;;;;6.72;5.85;;;;;;;23.30;64.81;100360.47;10417346;28;20057;-65
2023/06/22 04:42:52;;;;;;;8.85;6.53;;;;;;;23.35;64.73;100360.53;10411064;28;20041;-67
2023/06/22 04:47:54;;;;;;;9.68;6.68;;;;;;;23.39;64.67;100350.69;10422490;28;20143;-65
2023/06/22 04:52:56;;;;;;;14.35;7.10;;;;;;;23.35;64.89;100360.53;10428164;28;20045;-67
2023/06/22 04:58:04;;;;;;;10.02;7.30;;;;;;;23.44;64.48;100360.84;10427116;28;20042;-67
2023/06/22 05:03:06;;;;;;;10.80;6.70;;;;;;;23.42;64.82;100360.28;10426451;28;20555;-67
2023/06/22 05:08:20;;;;;;;11.00;7.20;;;;;;;23.41;64.77;100354.00;10426340;28;20098;-68
2023/06/22 05:13:26;;;;;;;10.65;6.75;;;;;;;23.45;64.50;100332.34;10421539;28;20041;-67
2023/06/22 05:18:29;;;;;;;11.50;7.85;;;;;;;23.50;64.50;100335.97;10409165;28;20048;-67
2023/06/22 05:23:30;;;;;;;12.88;7.60;;;;;;;23.54;64.78;100344.50;10422515;28;20730;-66
2023/06/22 05:28:32;;;;;;;12.80;8.13;;;;;;;23.52;64.75;100343.94;10429289;28;20041;-67
2023/06/22 05:33:34;;;;;;;12.25;7.25;;;;;;;23.63;64.70;100334.69;10427144;28;20136;-65
2023/06/22 05:38:36;;;;;;;7.53;6.63;;;;;;;23.78;64.33;100327.69;10431571;28;20045;-66
2023/06/22 05:43:38;;;;;;;10.55;6.68;;;;;;;23.75;64.35;100329.81;10429910;28;20977;-67
2023/06/22 05:48:39;;;;;;;12.23;7.20;;;;;;;23.85;64.54;100331.84;10428086;28;20052;-62
2023/06/22 05:53:41;;;;;;;11.13;7.38;;;;;;;23.98;64.21;100326.97;10431156;28;20037;-64
2023/06/22 05:58:42;;;;;;;14.00;7.75;;;;;;;24.09;64.20;100326.78;10431164;28;20322;-63
2023/06/22 06:03:44;;;;;;;12.15;7.45;;;;;;;24.24;63.68;100320.50;10427788;28;20532;-64
2023/06/22 06:08:45;;;;;;;13.85;7.65;;;;;;;24.27;63.75;100317.25;10429477;28;20053;-64
2023/06/22 06:13:47;;;;;;;9.02;6.95;;;;;;;24.29;63.55;100319.69;10387846;28;20057;-65
2023/06/22 06:18:50;;;;;;;11.38;7.30;;;;;;;24.50;63.05;100323.38;10394395;28;20259;-64
2023/06/22 06:23:53;;;;;;;13.75;6.88;;;;;;;24.65;62.76;100312.47;10386608;28;20412;-63
2023/06/22 06:28:55;;;;;;;11.88;6.88;;;;;;;24.86;62.71;100312.50;10382224;28;20060;-61
2023/06/22 06:33:57;;;;;;;9.77;7.13;;;;;;;25.10;61.52;100310.88;10377225;28;20057;-61
2023/06/22 06:38:58;;;;;;;8.75;6.60;;;;;;;25.26;61.17;100308.19;10379332;28;20566;-64
2023/06/22 06:44:00;;;;;;;9.48;6.82;;;;;;;25.41;61.20;100302.66;10384899;28;20053;-65
2023/06/22 06:49:02;;;;;;;8.13;7.15;;;;;;;25.55;60.68;100300.16;10384778;28;20053;-65
2023/06/22 06:54:03;;;;;;;9.43;6.90;;;;;;;25.68;61.15;100309.81;10393099;28;20060;-65
2023/06/22 06:59:04;;;;;;;10.23;7.20;;;;;;;25.79;60.65;100283.91;10395142;28;20061;-65
2023/06/22 07:04:06;;;;;;;11.98;6.78;;;;;;;25.92;59.78;100288.00;10413977;28;20049;-64
2023/06/22 07:09:08;;;;;;;9.63;6.13;;;;;;;26.01;59.76;100283.59;10416181;28;20061;-65
2023/06/22 07:14:09;;;;;;;9.73;6.35;;;;;;;26.19;58.86;100289.59;10423650;28;20057;-64
2023/06/22 07:19:12;;;;;;;9.40;6.10;;;;;;;26.20;59.34;100281.00;10417176;28;20104;-68
2023/06/22 07:24:14;;;;;;;10.80;6.45;;;;;;;26.28;58.92;100283.22;10427740;28;20087;-64
2023/06/22 07:29:17;;;;;;;11.63;6.70;;;;;;;26.44;58.22;100272.94;10416653;28;20045;-64
2023/06/22 07:34:19;;;;;;;8.30;6.97;;;;;;;26.65;57.74;100270.06;10434238;28;20213;-64
2023/06/22 07:39:25;;;;;;;9.32;6.47;;;;;;;26.70;57.67;100275.56;10432171;28;20045;-64
2023/06/22 07:44:28;;;;;;;11.18;6.40;;;;;;;26.81;57.32;100266.09;10428442;28;20049;-64
2023/06/22 07:49:29;;;;;;;8.27;6.38;;;;;;;26.96;56.73;100262.41;10423011;28;20041;-65
2023/06/22 07:54:31;;;;;;;7.45;6.63;;;;;;;27.19;56.39;100249.81;10424438;28;20128;-64
2023/06/22 07:59:32;;;;;;;6.85;6.15;;;;;;;27.40;56.15;100241.38;10422079;28;20037;-65
2023/06/22 08:04:34;;;;;;;9.32;6.35;;;;;;;27.59;55.75;100245.03;10425904;28;20076;-66
2023/06/22 08:09:36;;;;;;;20.23;7.35;;;;;;;27.79;55.51;100238.47;10428402;28;20025;-64
2023/06/22 08:20:08;;;;;;;26.27;7.40;;;;;;;28.20;54.26;100231.63;10539748;22;20052;-67
2023/06/22 08:25:11;;;;;;;13.52;6.53;;;;;;;28.47;53.36;100233.72;10463137;28;20059;-66
2023/06/22 08:30:13;;;;;;;6.88;5.82;;;;;;;28.74;52.24;100224.78;10456951;28;20125;-66
2023/06/22 08:35:38;;;;;;;6.22;5.32;;;;;;;28.89;52.07;100223.72;10534281;22;20143;-92
2023/06/22 08:46:19;;;;;;;6.65;5.63;;;;;;;29.38;50.75;100202.13;11794849;23;21215;-65
2023/06/22 08:51:21;;;;;;;6.53;5.03;;;;;;;29.61;50.19;100208.63;10146338;29;20024;-66
2023/06/22 08:56:23;;;;;;;7.63;5.32;;;;;;;29.86;49.75;100204.53;11437715;23;20114;-66
2023/06/22 09:01:24;;;;;;;9.25;5.63;;;;;;;30.08;48.97;100203.78;10241419;28;20046;-66
2023/06/22 09:06:26;;;;;;;7.50;5.28;;;;;;;30.29;48.98;100189.47;10242876;28;20043;-67
2023/06/22 09:11:27;;;;;;;9.70;5.65;;;;;;;30.56;48.73;100185.81;10231506;28;20513;-67
2023/06/22 09:16:29;;;;;;;6.05;5.13;;;;;;;30.78;47.80;100196.09;10241644;28;20126;-67
2023/06/22 09:21:30;;;;;;;8.32;5.60;;;;;;;30.96;47.74;100191.50;10234104;28;20745;-67
2023/06/22 09:26:34;;;;;;;6.28;5.53;;;;;;;31.16;47.49;100187.38;10233542;28;20071;-66
2023/06/22 09:31:36;;;;;;;6.05;5.25;;;;;;;31.35;46.84;100174.06;10229100;28;20050;-66
2023/06/22 09:36:39;;;;;;;6.50;5.90;;;;;;;31.53;46.13;100175.00;10237092;28;20078;-67
2023/06/22 09:41:41;;;;;;;8.27;5.55;;;;;;;31.74;45.67;100169.69;10239476;28;20048;-67
2023/06/22 09:46:42;;;;;;;10.95;5.03;;;;;;;31.82;45.70;100156.94;10247663;28;20411;-67
2023/06/22 09:51:44;;;;;;;5.43;4.93;;;;;;;32.09;45.02;100147.53;10246780;28;20498;-65
2023/06/22 09:56:45;;;;;;;5.97;5.38;;;;;;;32.03;44.75;100128.53;10247995;28;20070;-66
2023/06/22 10:01:47;;;;;;;5.35;4.43;;;;;;;32.27;43.75;100136.38;10241753;28;20044;-64
2023/06/22 10:06:48;;;;;;;9.32;5.22;;;;;;;32.60;43.00;100131.16;10242032;28;20051;-60
2023/06/22 10:11:49;;;;;;;7.38;4.90;;;;;;;32.79;42.68;100130.81;10237307;28;20050;-60
2023/06/22 10:16:52;;;;;;;5.72;4.65;;;;;;;32.77;42.50;100114.44;10236068;28;20047;-61
2023/06/22 10:21:53;;;;;;;5.78;5.22;;;;;;;32.93;41.39;100108.31;10234754;28;20040;-62
2023/06/22 10:26:55;;;;;;;4.55;4.15;;;;;;;33.18;41.27;100101.06;10237001;28;20057;-63
2023/06/22 10:31:56;;;;;;;4.95;4.10;;;;;;;33.35;40.58;100086.22;10232838;28;20400;-61
2023/06/22 10:36:58;;;;;;;8.15;4.68;;;;;;;33.55;39.91;100070.66;10234527;28;20507;-65
2023/06/22 10:41:59;;;;;;;4.20;3.33;;;;;;;33.57;39.84;100062.78;10233975;28;20045;-65
2023/06/22 10:47:01;;;;;;;4.00;3.42;;;;;;;33.70;39.18;100058.16;10222068;28;20054;-65
2023/06/22 10:52:02;;;;;;;4.10;3.60;;;;;;;33.93;39.04;100047.47;10235945;28;20144;-66
2023/06/22 10:57:04;;;;;;;9.55;3.40;;;;;;;34.33;37.51;100038.59;10235281;28;20059;-65
2023/06/22 11:02:06;;;;;;;4.30;3.40;;;;;;;34.46;36.93;100031.91;10230465;28;20087;-65
2023/06/22 11:07:07;;;;;;;4.47;3.53;;;;;;;34.68;36.79;100024.28;10226478;28;20119;-65
2023/06/22 11:12:09;;;;;;;3.90;3.38;;;;;;;34.93;36.59;99997.16;10222048;28;20055;-65
2023/06/22 11:17:11;;;;;;;6.28;3.78;;;;;;;35.21;35.42;99994.53;10224695;28;20047;-66
2023/06/22 11:22:12;;;;;;;3.53;3.20;;;;;;;35.41;34.84;99986.31;10227964;28;20039;-65
2023/06/22 11:27:14;;;;;;;5.43;2.65;;;;;;;35.43;34.25;99978.38;10228717;28;20048;-65
2023/06/22 11:32:15;;;;;;;3.80;2.75;;;;;;;35.62;33.92;99963.78;10217583;28;20054;-66
2023/06/22 11:37:17;;;;;;;3.30;3.00;;;;;;;35.64;34.58;99967.03;10219885;28;20054;-65
2023/06/22 11:42:18;;;;;;;7.20;3.38;;;;;;;35.74;34.37;99955.38;10222236;28;20160;-65
2023/06/22 11:47:20;;;;;;;7.45;3.55;;;;;;;35.93;34.20;99946.31;10217411;28;20047;-65
2023/06/22 11:52:21;;;;;;;7.55;3.47;;;;;;;36.20;33.91;99949.44;10223614;28;20119;-64
2023/06/22 11:57:23;;;;;;;6.75;4.20;;;;;;;36.50;32.97;99942.25;10220008;28;20058;-68
2023/06/22 12:02:24;;;;;;;4.60;3.53;;;;;;;36.55;32.91;99937.53;10222604;28;20052;-68
2023/06/22 12:07:26;;;;;;;5.45;3.38;;;;;;;36.83;32.98;99935.47;10217569;28;20479;-65
2023/06/22 12:12:27;;;;;;;8.48;4.00;;;;;;;37.05;32.78;99924.75;10219949;28;20062;-68
2023/06/22 12:17:29;;;;;;;7.32;4.03;;;;;;;37.18;32.04;99915.06;10231203;28;20036;-67
2023/06/22 12:22:32;;;;;;;9.55;3.83;;;;;;;37.15;31.65;99915.81;10216792;28;20063;-66
2023/06/22 12:27:34;;;;;;;8.02;4.10;;;;;;;37.36;31.35;99909.81;10217743;28;20057;-68
2023/06/22 12:32:36;;;;;;;5.82;4.30;;;;;;;37.58;31.74;99905.50;10217493;28;20047;-66
2023/06/22 12:37:37;;;;;;;7.82;3.47;;;;;;;37.78;31.55;99888.66;10216853;28;20106;-67
2023/06/22 12:42:39;;;;;;;10.02;4.07;;;;;;;37.85;31.36;99891.59;10216280;28;20048;-68
2023/06/22 12:47:41;;;;;;;6.45;3.47;;;;;;;38.29;30.54;99888.38;10220080;28;20058;-69
2023/06/22 12:52:42;;;;;;;4.50;3.63;;;;;;;38.14;30.08;99884.53;10217994;28;20058;-66
2023/06/22 12:57:44;;;;;;;7.22;4.57;;;;;;;38.48;30.08;99874.25;10216715;28;20123;-69
2023/06/22 13:02:45;;;;;;;8.38;4.95;;;;;;;38.40;30.00;99875.34;10221415;28;20132;-70
2023/06/22 13:07:47;;;;;;;5.15;4.40;;;;;;;38.11;30.08;99873.25;10223819;28;20052;-64
2023/06/22 13:12:48;;;;;;;6.07;3.78;;;;;;;38.05;30.50;99881.13;10225545;28;20579;-68
2023/06/22 13:17:50;;;;;;;6.80;4.72;;;;;;;38.01;30.39;99872.63;10222208;28;20039;-72
2023/06/22 13:22:51;;;;;;;6.60;3.95;;;;;;;37.55;30.68;99872.56;10220000;28;20498;-69
2023/06/22 13:27:53;;;;;;;6.18;3.63;;;;;;;37.55;31.22;99861.34;10223016;28;20058;-68
2023/06/22 13:32:54;;;;;;;5.63;3.42;;;;;;;37.31;30.96;99846.44;10222477;28;20404;-65
2023/06/22 13:37:56;;;;;;;5.68;3.90;;;;;;;37.63;31.01;99831.47;10223993;28;20489;-65
2023/06/22 13:42:57;;;;;;;4.60;3.63;;;;;;;37.84;30.58;99829.06;10225308;28;20054;-66
2023/06/22 13:47:59;;;;;;;9.13;4.40;;;;;;;38.25;30.52;99820.13;10222742;28;20400;-69
2023/06/22 13:53:00;;;;;;;7.65;3.83;;;;;;;38.24;30.41;99804.47;10223857;28;20059;-70
2023/06/22 13:58:02;;;;;;;8.50;4.25;;;;;;;37.75;30.57;99799.63;10222276;28;20055;-66
2023/06/22 14:03:03;;;;;;;9.57;3.78;;;;;;;37.39;31.59;99804.53;10223891;28;20055;-67
2023/06/22 14:08:05;;;;;;;9.68;4.10;;;;;;;37.16;31.70;99785.66;10221945;28;20055;-65
2023/06/22 14:13:26;;;;;;;12.95;4.65;;;;;;;37.06;31.75;99766.63;10221600;28;20534;-65
2023/06/22 14:18:28;;;;;;;9.35;4.00;;;;;;;37.27;32.47;99750.25;10224090;28;20540;-65
2023/06/22 14:23:29;;;;;;;6.47;3.80;;;;;;;37.65;31.73;99742.13;10225823;28;20077;-65
2023/06/22 14:28:31;;;;;;;7.57;3.88;;;;;;;37.89;31.36;99740.91;10225736;28;20047;-65
2023/06/22 14:33:32;;;;;;;7.15;3.97;;;;;;;37.85;31.04;99723.22;10221736;28;20043;-64
2023/06/22 14:38:34;;;;;;;7.70;3.85;;;;;;;37.68;31.76;99719.75;10222296;28;20050;-64
2023/06/22 14:43:35;;;;;;;8.18;3.35;;;;;;;37.34;31.64;99699.09;10226539;28;20059;-64
2023/06/22 14:48:36;;;;;;;9.13;3.42;;;;;;;36.68;32.11;99693.41;10222054;28;20043;-64
2023/06/22 14:53:38;;;;;;;9.00;2.55;;;;;;;36.08;30.95;99696.47;10227399;28;20058;-64
2023/06/22 14:58:40;;;;;;;8.05;2.75;;;;;;;35.94;30.69;99679.31;10382793;23;20032;-90
2023/06/22 15:03:42;;;;;;;13.68;2.13;;;;;;;35.63;30.17;99669.78;10215465;23;20064;-89
2023/06/22 15:08:46;;;;;;;7.10;2.30;;;;;;;35.25;30.67;99664.81;10591262;23;20079;-69
2023/06/22 15:13:48;;;;;;;4.22;2.15;;;;;;;35.06;30.86;99659.91;10526932;23;20132;-69
2023/06/22 15:18:49;;;;;;;17.85;3.45;;;;;;;34.95;31.11;99662.41;10383987;23;20046;-68
2023/06/22 15:23:51;;;;;;;9.13;2.97;;;;;;;34.54;31.84;99653.28;10340667;23;20049;-90
2023/06/22 15:28:53;;;;;;;9.93;2.60;;;;;;;34.10;32.54;99676.25;10293722;23;20079;-67
2023/06/22 15:33:54;;;;;;;15.10;2.80;;;;;;;33.82;33.84;99644.69;10268116;28;20054;-69
2023/06/22 15:38:56;;;;;;;7.10;2.58;;;;;;;32.08;37.42;99684.22;10263738;28;20074;-70
2023/06/22 15:43:58;;;;;;;7.90;2.40;;;;;;;30.63;42.54;99761.66;10260656;28;20520;-70
2023/06/22 15:49:00;;;;;;;10.43;2.53;;;;;;;28.84;46.22;99742.34;10278913;28;20047;-74
2023/06/22 15:54:02;;;;;;;13.30;2.42;;;;;;;28.34;46.91;99695.34;10307580;23;20102;-91
2023/06/22 15:59:07;;;;;;;8.77;2.08;;;;;;;27.93;47.38;99663.09;10314983;28;20035;-91
2023/06/22 16:04:09;;;;;;;8.57;2.80;;;;;;;27.91;47.10;99635.75;10326821;28;20051;-89
2023/06/22 16:09:11;;;;;;;14.35;2.50;;;;;;;27.73;47.80;99644.97;10328734;28;20078;-91
2023/06/22 16:14:13;;;;;;;8.95;2.45;;;;;;;27.23;49.64;99690.59;10310168;28;20142;-91
2023/06/22 16:19:18;;;;;;;9.80;1.73;;;;;;;26.80;51.44;99836.94;10257899;28;20079;-91
2023/06/22 16:24:23;;;;;;;3.60;0.50;;;;;;;25.58;52.75;99845.41;10210066;23;20129;-68
2023/06/22 16:29:25;;;;;;;2.03;0.70;;;;;;;24.03;60.48;99844.53;10176586;29;20068;-68
2023/06/22 16:34:26;;;;;;;8.90;1.25;;;;;;;23.09;64.46;99948.97;10154736;28;20128;-64
2023/06/22 16:39:28;;;;;;;10.68;1.30;;;;;;;21.57;69.98;99977.72;10165691;28;20105;-67
2023/06/22 16:44:29;;;;;;;0.00;0.00;;;;;;;21.34;67.30;99836.63;10855143;23;20043;-69
2023/06/22 16:49:31;;;;;;;0.00;0.00;;;;;;;21.34;67.64;99822.97;12011017;23;20071;-72
2023/06/22 16:54:32;;;;;;;0.00;0.00;;;;;;;21.23;67.91;99816.59;10294805;28;20054;-70
2023/06/22 16:59:36;;;;;;;0.00;0.00;;;;;;;21.41;67.12;99818.09;10296704;28;20039;-70
2023/06/22 17:04:38;;;;;;;0.00;0.00;;;;;;;21.41;67.51;99815.38;10295090;28;20051;-68
2023/06/22 17:09:46;;;;;;;0.00;0.00;;;;;;;21.25;68.33;99808.09;10285095;28;20138;-66
2023/06/22 17:14:48;;;;;;;0.00;0.00;;;;;;;21.29;68.70;99809.25;10247578;28;20043;-67
2023/06/22 17:19:49;;;;;;;0.00;0.00;;;;;;;21.21;69.71;99813.28;10257589;28;20051;-64
2023/06/22 17:24:51;;;;;;;0.05;0.05;;;;;;;21.22;70.08;99806.72;10253696;28;20050;-65
2023/06/22 17:30:04;;;;;;;0.00;0.00;;;;;;;21.22;69.88;99793.06;10246060;28;20158;-64
2023/06/22 17:35:06;;;;;;;0.00;0.00;;;;;;;21.41;69.57;99774.34;10250085;28;20138;-65
2023/06/22 17:40:14;;;;;;;0.00;0.00;;;;;;;21.58;69.42;99763.28;10248250;28;20075;-65
2023/06/22 17:45:23;;;;;;;0.00;0.00;;;;;;;21.72;69.31;99747.22;10244626;28;20113;-66
2023/06/22 17:50:25;;;;;;;0.00;0.00;;;;;;;21.96;69.24;99764.06;10241617;28;20059;-66
2023/06/22 17:55:26;;;;;;;0.00;0.00;;;;;;;22.20;68.83;99747.22;10248384;28;20055;-66
2023/06/22 18:00:28;;;;;;;0.00;0.00;;;;;;;22.53;68.43;99746.78;10242125;28;20047;-61
2023/06/22 18:05:31;;;;;;;0.00;0.00;;;;;;;22.80;68.58;99744.91;10239577;28;20047;-62
2023/06/22 18:10:35;;;;;;;0.00;0.00;;;;;;;23.00;68.72;99757.81;10239756;28;20568;-64
2023/06/22 18:15:37;;;;;;;0.00;0.00;;;;;;;23.19;68.97;99755.41;10240568;28;20600;-64
2023/06/22 18:20:39;;;;;;;0.00;0.00;;;;;;;23.29;68.99;99772.66;10239336;28;20159;-64
2023/06/22 18:25:44;;;;;;;0.00;0.00;;;;;;;23.36;69.08;99781.44;10239786;28;20122;-66
2023/06/22 18:30:46;;;;;;;0.00;0.00;;;;;;;23.42;69.20;99771.31;10239802;28;20051;-65
2023/06/22 18:35:51;;;;;;;0.00;0.00;;;;;;;23.38;69.11;99752.91;10240422;28;20109;-65
2023/06/22 18:40:53;;;;;;;0.00;0.00;;;;;;;23.44;69.03;99747.16;10241669;28;20063;-66
2023/06/22 18:45:54;;;;;;;0.00;0.00;;;;;;;23.52;68.87;99748.53;10243134;28;20047;-66
2023/06/22 18:51:10;;;;;;;0.00;0.00;;;;;;;23.50;68.93;99751.53;10237447;28;20043;-67
2023/06/22 18:56:14;;;;;;;0.00;0.00;;;;;;;23.42;69.12;99759.47;10233689;28;20127;-66
2023/06/22 19:01:17;;;;;;;0.00;0.00;;;;;;;23.15;69.75;99760.59;10236662;28;20090;-65
2023/06/22 19:06:55;;;;;;;0.00;0.00;;;;;;;23.22;69.31;99752.91;10238363;28;20047;-66
2023/06/22 19:12:15;;;;;;;0.00;0.00;;;;;;;23.20;69.31;99738.66;10237153;28;20118;-67
2023/06/22 19:17:18;;;;;;;0.00;0.00;;;;;;;22.96;70.16;99733.69;10237567;28;20044;-68
2023/06/22 19:22:43;;;;;;;0.00;0.00;;;;;;;22.86;70.53;99730.94;10237165;28;21017;-66
2023/06/22 19:27:47;;;;;;;0.00;0.00;;;;;;;22.85;70.40;99703.78;10238274;28;20059;-66
2023/06/22 19:32:48;;;;;;;0.00;0.00;;;;;;;22.81;70.20;99700.81;10233834;28;20392;-67
2023/06/22 19:37:50;;;;;;;0.00;0.00;;;;;;;22.61;71.16;99717.19;10234972;28;20063;-66
2023/06/22 19:42:55;;;;;;;0.00;0.00;;;;;;;22.63;70.82;99713.13;10234711;28;20138;-66
2023/06/22 19:47:56;;;;;;;0.00;0.00;;;;;;;22.70;70.84;99741.06;10238002;28;20083;-66
2023/06/22 19:52:58;;;;;;;0.00;0.00;;;;;;;22.70;70.77;99753.94;10239328;28;20062;-67
2023/06/22 19:58:00;;;;;;;0.00;0.00;;;;;;;22.65;70.76;99757.50;10233061;28;20070;-68
2023/06/22 20:03:02;;;;;;;0.00;0.00;;;;;;;22.64;71.15;99747.63;10239431;28;20062;-66
2023/06/22 20:08:04;;;;;;;0.00;0.00;;;;;;;22.70;70.85;99764.91;10237016;28;20050;-66
2023/06/22 20:13:13;;;;;;;0.00;0.00;;;;;;;22.50;71.73;99744.59;10238168;28;20066;-65
2023/06/22 20:18:15;;;;;;;0.00;0.00;;;;;;;22.56;71.55;99770.88;10261140;28;20086;-67
2023/06/22 20:23:19;;;;;;;0.00;0.00;;;;;;;22.56;71.62;99776.38;10246168;28;20134;-66
2023/06/22 20:28:25;;;;;;;0.00;0.00;;;;;;;22.59;71.76;99772.28;10244405;28;20321;-66
2023/06/22 20:33:27;;;;;;;0.00;0.00;;;;;;;22.53;71.56;99787.03;10244818;28;20444;-66
2023/06/22 20:38:31;;;;;;;0.00;0.00;;;;;;;22.57;71.85;99807.31;10245270;28;20043;-66
2023/06/22 20:43:32;;;;;;;0.00;0.00;;;;;;;22.63;71.50;99794.47;10243004;28;20043;-67
2023/06/22 20:48:34;;;;;;;0.00;0.00;;;;;;;22.52;71.91;99782.66;10246964;28;20078;-67
2023/06/22 20:53:40;;;;;;;0.00;0.00;;;;;;;22.41;72.11;99780.97;10247894;28;20061;-67
2023/06/22 20:58:41;;;;;;;0.00;0.00;;;;;;;22.35;72.58;99797.41;10248235;28;20150;-66
2023/06/22 21:03:43;;;;;;;0.00;0.00;;;;;;;22.35;72.77;99802.03;10248509;28;20053;-66
2023/06/22 21:08:45;;;;;;;0.00;0.00;;;;;;;22.27;72.83;99821.72;10267276;28;20135;-68
2023/06/22 21:13:47;;;;;;;0.00;0.00;;;;;;;22.28;72.59;99823.38;10285064;28;20085;-67
2023/06/22 21:18:48;;;;;;;0.00;0.00;;;;;;;22.24;72.83;99825.81;10284119;28;20078;-68
2023/06/22 21:23:49;;;;;;;0.00;0.00;;;;;;;22.24;72.81;99825.81;10278521;28;20058;-69
2023/06/22 21:28:51;;;;;;;0.00;0.00;;;;;;;22.24;72.75;99834.03;10285991;28;20054;-69
2023/06/22 21:33:53;;;;;;;0.00;0.00;;;;;;;22.22;72.65;99840.84;10280305;28;20055;-70
2023/06/22 21:38:54;;;;;;;0.10;0.10;;;;;;;22.18;72.19;99840.56;10264625;28;20146;-69
2023/06/22 21:43:56;;;;;;;0.00;0.00;;;;;;;22.29;72.08;99858.69;10269629;28;20066;-68
2023/06/22 21:48:57;;;;;;;0.00;0.00;;;;;;;22.32;72.00;99882.00;10269794;28;20145;-69
2023/06/22 21:53:59;;;;;;;0.00;0.00;;;;;;;22.37;71.54;99884.75;10243371;28;20063;-70
2023/06/22 21:59:00;;;;;;;0.00;0.00;;;;;;;22.36;71.44;99889.41;10244212;28;20679;-70
2023/06/22 22:04:02;;;;;;;0.00;0.00;;;;;;;22.40;71.71;99900.69;10243466;28;20146;-72
2023/06/22 22:09:04;;;;;;;0.00;0.00;;;;;;;22.37;71.51;99925.84;10252705;28;22198;-69
2023/06/22 22:14:08;;;;;;;0.00;0.00;;;;;;;22.40;71.48;99955.44;10246319;28;20455;-72
2023/06/22 22:19:10;;;;;;;0.00;0.00;;;;;;;22.37;71.17;99978.72;10247588;28;20054;-71
2023/06/22 22:24:11;;;;;;;0.00;0.00;;;;;;;22.39;71.39;99997.59;10247758;28;20053;-68
2023/06/22 22:29:12;;;;;;;0.00;0.00;;;;;;;22.44;71.47;99999.59;10248650;28;20047;-66
2023/06/22 22:34:14;;;;;;;0.00;0.00;;;;;;;22.29;71.49;99986.59;10244999;28;20035;-67
2023/06/22 22:39:37;;;;;;;0.00;0.00;;;;;;;22.16;71.19;100009.75;10243460;28;20503;-67
2023/06/22 22:44:38;;;;;;;0.00;0.00;;;;;;;22.00;70.84;100000.56;10244230;28;20051;-66
2023/06/22 22:49:41;;;;;;;0.00;0.00;;;;;;;21.90;70.39;99998.56;10244651;28;20066;-66
2023/06/22 22:54:43;;;;;;;0.00;0.00;;;;;;;21.82;70.03;99999.06;10244575;28;20051;-66
2023/06/22 22:59:44;;;;;;;0.00;0.00;;;;;;;21.76;70.17;99995.44;10242737;28;20051;-66
2023/06/22 23:04:56;;;;;;;0.00;0.00;;;;;;;21.70;69.73;99990.16;10241615;28;20055;-67
2023/06/22 23:09:58;;;;;;;0.00;0.00;;;;;;;21.51;69.45;99987.78;10240616;28;20051;-67
2023/06/22 23:15:00;;;;;;;1.15;0.63;;;;;;;21.42;69.73;99978.34;10242147;28;20059;-68
2023/06/22 23:20:06;;;;;;;1.83;0.93;;;;;;;21.39;70.22;99984.34;10240701;28;20074;-67
2023/06/22 23:25:09;;;;;;;0.95;0.80;;;;;;;21.34;70.19;99990.56;10239876;28;20231;-67
2023/06/22 23:30:11;;;;;;;2.88;0.77;;;;;;;21.28;69.66;99972.47;10239621;28;20590;-66